Time;durP1;ratioP1;P1;durP2;ratioP2;P2;SDS_P1;SDS_P2;PMS_P1;PMS_P2;Temp;Humidity;BMP_temperature;BMP_pressure;BME280_temperature;BME280_humidity;BME280_pressure;Samples;Min_cycle;Max_cycle;Signal;HPM_P1;HPM_P2
2023/07/14 00:04:34;;;;;;;2.58;1.48;;;;;;;;;;10254118;28;20530;-58
2023/07/14 00:09:34;;;;;;;3.67;1.52;;;;;;;;;;10242081;28;20505;-58
2023/07/14 00:14:35;;;;;;;1.92;1.20;;;;;;;;;;10234401;28;20114;-57
2023/07/14 00:19:36;;;;;;;2.33;1.10;;;;;;;;;;10239203;28;20059;-58
2023/07/14 00:24:36;;;;;;;2.13;1.25;;;;;;;;;;10254125;28;20039;-58
2023/07/14 00:29:39;;;;;;;2.33;1.33;;;;;;;;;;10254431;28;20031;-58
2023/07/14 00:34:40;;;;;;;1.33;1.17;;;;;;;;;;10240863;28;20035;-58
2023/07/14 00:39:41;;;;;;;1.60;1.17;;;;;;;;;;10242834;28;20023;-58
2023/07/14 00:44:43;;;;;;;1.52;1.08;;;;;;;;;;10242472;28;20027;-57
2023/07/14 00:49:44;;;;;;;1.10;1.02;;;;;;;;;;10229790;28;20235;-57
2023/07/14 00:54:52;;;;;;;2.63;1.23;;;;;;;;;;10254052;28;20074;-58
2023/07/14 00:59:56;;;;;;;1.48;1.17;;;;;;;;;;10250690;28;20036;-58
2023/07/14 01:05:05;;;;;;;1.48;1.25;;;;;;;;;;10232451;28;20042;-58
2023/07/14 01:10:11;;;;;;;1.48;1.00;;;;;;;;;;10249453;28;20058;-58
2023/07/14 01:15:12;;;;;;;1.08;0.98;;;;;;;;;;10235720;28;20027;-57
2023/07/14 01:20:13;;;;;;;1.60;0.90;;;;;;;;;;10223890;28;20024;-56
2023/07/14 01:25:33;;;;;;;1.70;1.08;;;;;;;;;;10235587;29;20034;-57
2023/07/14 01:30:35;;;;;;;2.15;1.27;;;;;;;;;;10212570;29;20019;-57
2023/07/14 01:35:41;;;;;;;1.33;0.90;;;;;;;;;;10233896;28;20028;-57
2023/07/14 01:40:42;;;;;;;1.10;0.98;;;;;;;;;;10233032;29;20086;-57
2023/07/14 01:45:53;;;;;;;1.02;0.93;;;;;;;;;;10228383;28;20039;-57
2023/07/14 01:50:59;;;;;;;2.13;1.13;;;;;;;;;;10222724;29;20037;-57
2023/07/14 01:56:04;;;;;;;1.38;0.90;;;;;;;;;;10226591;29;20031;-57
2023/07/14 02:01:06;;;;;;;2.78;1.20;;;;;;;;;;10230373;29;20039;-58
2023/07/14 02:06:07;;;;;;;0.93;0.88;;;;;;;;;;10238865;29;20030;-58
2023/07/14 02:11:17;;;;;;;1.73;1.10;;;;;;;;;;10245687;28;20046;-57
2023/07/14 02:16:17;;;;;;;1.27;0.90;;;;;;;;;;10213375;29;20488;-57
2023/07/14 02:21:27;;;;;;;1.02;0.93;;;;;;;;;;10238278;28;20108;-58
2023/07/14 02:26:32;;;;;;;0.82;0.75;;;;;;;;;;10222488;29;20382;-58
2023/07/14 02:31:41;;;;;;;0.95;0.90;;;;;;;;;;10233554;29;20107;-57
2023/07/14 02:36:59;;;;;;;0.93;0.82;;;;;;;;;;10231767;28;20035;-57
2023/07/14 02:42:00;;;;;;;2.67;0.90;;;;;;;;;;10232422;28;20094;-57
2023/07/14 02:47:17;;;;;;;1.55;0.80;;;;;;;;;;10244687;28;20110;-57
2023/07/14 02:52:18;;;;;;;1.80;0.88;;;;;;;;;;10229687;29;20027;-57
2023/07/14 02:57:18;;;;;;;1.90;0.90;;;;;;;;;;10242266;28;20043;-58
2023/07/14 03:02:19;;;;;;;0.75;0.73;;;;;;;;;;10230925;28;20495;-57
2023/07/14 03:07:19;;;;;;;1.75;0.90;;;;;;;;;;10218512;29;20024;-58
2023/07/14 03:12:20;;;;;;;0.93;0.80;;;;;;;;;;10225417;28;20035;-57
2023/07/14 03:17:21;;;;;;;0.70;0.70;;;;;;;;;;10223080;29;20430;-57
2023/07/14 03:22:23;;;;;;;1.17;1.00;;;;;;;;;;10230809;28;20399;-57
2023/07/14 03:27:24;;;;;;;0.80;0.77;;;;;;;;;;10229517;28;20029;-57
2023/07/14 03:32:25;;;;;;;0.82;0.70;;;;;;;;;;10242844;28;20027;-57
2023/07/14 03:37:25;;;;;;;0.82;0.70;;;;;;;;;;10241549;28;20032;-57
2023/07/14 03:42:26;;;;;;;0.60;0.60;;;;;;;;;;10219620;29;20414;-56
2023/07/14 03:47:26;;;;;;;0.60;0.60;;;;;;;;;;10217596;28;20031;-57
2023/07/14 03:52:27;;;;;;;1.10;1.00;;;;;;;;;;10243290;28;20451;-58
2023/07/14 03:57:28;;;;;;;1.75;0.88;;;;;;;;;;10226813;29;20027;-58
2023/07/14 04:02:28;;;;;;;1.15;0.68;;;;;;;;;;10235267;28;20412;-58
2023/07/14 04:07:29;;;;;;;2.10;0.75;;;;;;;;;;10242497;28;20027;-58
2023/07/14 04:12:30;;;;;;;0.60;0.60;;;;;;;;;;10236076;28;20024;-57
2023/07/14 04:17:31;;;;;;;1.02;0.70;;;;;;;;;;10222982;29;20088;-57
2023/07/14 04:22:32;;;;;;;0.95;0.80;;;;;;;;;;10235411;28;20472;-58
2023/07/14 04:27:33;;;;;;;1.33;0.73;;;;;;;;;;10234333;29;20031;-58
2023/07/14 04:32:34;;;;;;;0.70;0.70;;;;;;;;;;10241127;28;20360;-58
2023/07/14 04:37:34;;;;;;;0.70;0.68;;;;;;;;;;10240913;28;20066;-58
2023/07/14 04:42:36;;;;;;;1.42;0.80;;;;;;;;;;10239982;29;20034;-57
2023/07/14 04:47:36;;;;;;;0.90;0.60;;;;;;;;;;10246091;28;20071;-57
2023/07/14 04:52:37;;;;;;;0.63;0.63;;;;;;;;;;10237002;28;20079;-57
2023/07/14 04:57:37;;;;;;;0.70;0.70;;;;;;;;;;10245872;29;20035;-58
2023/07/14 05:02:38;;;;;;;3.55;0.77;;;;;;;;;;10233180;28;20070;-57
2023/07/14 05:07:38;;;;;;;1.15;0.80;;;;;;;;;;10225439;28;20388;-57
2023/07/14 05:12:39;;;;;;;0.70;0.50;;;;;;;;;;10236332;29;20368;-57
2023/07/14 05:17:43;;;;;;;0.68;0.68;;;;;;;;;;10227831;29;20039;-58
2023/07/14 05:22:48;;;;;;;1.33;0.82;;;;;;;;;;10238384;28;20031;-60
2023/07/14 05:27:48;;;;;;;2.47;1.30;;;;;;;;;;10232563;28;20023;-61
2023/07/14 05:32:50;;;;;;;5.93;2.10;;;;;;;;;;10215982;29;20032;-60
2023/07/14 05:37:51;;;;;;;8.00;1.95;;;;;;;;;;10208527;29;20479;-59
2023/07/14 05:42:52;;;;;;;7.13;2.00;;;;;;;;;;10214034;29;20062;-60
2023/07/14 05:47:53;;;;;;;9.77;1.92;;;;;;;;;;10245247;28;20027;-60
2023/07/14 05:52:53;;;;;;;4.32;1.83;;;;;;;;;;10231078;28;20019;-57
2023/07/14 05:57:54;;;;;;;8.82;2.60;;;;;;;;;;10212650;29;20028;-59
2023/07/14 06:02:55;;;;;;;16.67;2.22;;;;;;;;;;10203181;29;20107;-60
2023/07/14 06:07:55;;;;;;;7.10;2.40;;;;;;;;;;10203937;29;20040;-57
2023/07/14 06:12:56;;;;;;;6.25;2.20;;;;;;;;;;10224849;29;20403;-56
2023/07/14 06:17:56;;;;;;;5.93;2.03;;;;;;;;;;10212557;29;20483;-61
2023/07/14 06:22:57;;;;;;;6.13;2.45;;;;;;;;;;10217611;29;20546;-60
2023/07/14 06:27:57;;;;;;;4.82;1.92;;;;;;;;;;10221950;29;20098;-57
2023/07/14 06:32:58;;;;;;;5.25;2.10;;;;;;;;;;10220994;29;20436;-60
2023/07/14 06:37:59;;;;;;;7.80;2.33;;;;;;;;;;10217129;29;20387;-59
2023/07/14 06:43:00;;;;;;;9.85;1.77;;;;;;;;;;10220971;29;20039;-58
2023/07/14 06:48:02;;;;;;;3.78;1.98;;;;;;;;;;10221103;29;20038;-57
2023/07/14 06:53:03;;;;;;;4.60;2.20;;;;;;;;;;10217235;29;20031;-59
2023/07/14 06:58:05;;;;;;;7.72;1.90;;;;;;;;;;10232954;28;20032;-57
2023/07/14 07:03:06;;;;;;;8.05;2.05;;;;;;;;;;10232519;28;20051;-57
2023/07/14 07:08:14;;;;;;;3.15;1.67;;;;;;;;;;10231671;28;20023;-60
2023/07/14 07:13:15;;;;;;;2.90;1.70;;;;;;;;;;10230895;29;20114;-60
2023/07/14 07:18:22;;;;;;;4.85;1.92;;;;;;;;;;10218465;29;20034;-60
2023/07/14 07:23:22;;;;;;;4.00;2.00;;;;;;;;;;10230022;29;20035;-56
2023/07/14 07:28:23;;;;;;;6.55;1.95;;;;;;;;;;10217770;28;20403;-56
2023/07/14 07:33:24;;;;;;;6.18;1.90;;;;;;;;;;10219842;28;20031;-61
2023/07/14 07:38:24;;;;;;;4.22;1.92;;;;;;;;;;10218816;29;20031;-61
2023/07/14 07:43:27;;;;;;;14.20;2.08;;;;;;;;;;10230974;29;20032;-56
2023/07/14 07:48:28;;;;;;;6.60;1.98;;;;;;;;;;10226118;29;20538;-56
2023/07/14 07:53:28;;;;;;;5.00;2.20;;;;;;;;;;10234222;28;20031;-60
2023/07/14 07:58:29;;;;;;;11.23;2.22;;;;;;;;;;10214210;28;20036;-60
2023/07/14 08:03:31;;;;;;;9.18;2.00;;;;;;;;;;10220993;29;20047;-57
2023/07/14 08:08:34;;;;;;;6.78;1.70;;;;;;;;;;10229483;28;20047;-56
2023/07/14 08:13:35;;;;;;;10.70;1.90;;;;;;;;;;10231590;29;20549;-60
2023/07/14 08:18:36;;;;;;;8.65;1.60;;;;;;;;;;10217380;28;20086;-58
2023/07/14 08:23:40;;;;;;;7.07;1.77;;;;;;;;;;10213539;29;20062;-56
2023/07/14 08:28:41;;;;;;;16.23;2.53;;;;;;;;;;10225832;28;20035;-57
2023/07/14 08:33:43;;;;;;;6.53;2.17;;;;;;;;;;10213326;29;20032;-59
2023/07/14 08:38:44;;;;;;;11.77;2.20;;;;;;;;;;10224023;29;20087;-59
2023/07/14 08:44:12;;;;;;;6.47;1.58;;;;;;;;;;10235926;29;20057;-56
2023/07/14 08:49:50;;;;;;;6.90;1.37;;;;;;;;;;10225093;29;20696;-59
2023/07/14 08:55:06;;;;;;;5.07;1.52;;;;;;;;;;10220776;29;20028;-56
2023/07/14 09:00:14;;;;;;;5.38;1.27;;;;;;;;;;10234466;29;20031;-56
2023/07/14 09:05:26;;;;;;;26.58;3.65;;;;;;;;;;10241086;29;20123;-59
2023/07/14 09:10:56;;;;;;;6.13;1.85;;;;;;;;;;10231249;29;20375;-60
2023/07/14 09:15:57;;;;;;;5.00;1.30;;;;;;;;;;10235157;29;20028;-56
2023/07/14 09:21:06;;;;;;;5.32;1.60;;;;;;;;;;10213011;29;20030;-56
2023/07/14 09:26:39;;;;;;;2.72;1.40;;;;;;;;;;10246308;29;20363;-60
2023/07/14 09:31:59;;;;;;;7.25;1.52;;;;;;;;;;10218727;29;20082;-56
2023/07/14 09:37:01;;;;;;;2.67;1.15;;;;;;;;;;10222087;29;20047;-58
2023/07/14 09:42:06;;;;;;;3.88;1.60;;;;;;;;;;10233066;29;20028;-56
2023/07/14 09:47:07;;;;;;;3.05;1.30;;;;;;;;;;10222015;28;20024;-57
2023/07/14 09:52:20;;;;;;;9.70;1.48;;;;;;;;;;10246194;28;20015;-59
2023/07/14 09:57:27;;;;;;;10.02;1.92;;;;;;;;;;10240185;29;20074;-61
2023/07/14 10:02:34;;;;;;;5.85;1.40;;;;;;;;;;10221757;29;20115;-60
2023/07/14 10:07:41;;;;;;;13.37;1.50;;;;;;;;;;10246096;28;20050;-59
2023/07/14 10:12:49;;;;;;;13.77;1.45;;;;;;;;;;10225594;28;20028;-54
2023/07/14 10:17:54;;;;;;;6.20;1.15;;;;;;;;;;10221868;29;20438;-54
2023/07/14 10:22:58;;;;;;;3.05;1.10;;;;;;;;;;10209445;29;20167;-56
2023/07/14 10:28:10;;;;;;;14.93;1.30;;;;;;;;;;10228985;29;20397;-59
2023/07/14 10:33:25;;;;;;;11.32;1.58;;;;;;;;;;10221243;28;20023;-60
2023/07/14 10:38:55;;;;;;;4.50;1.38;;;;;;;;;;10231197;29;20030;-59
2023/07/14 10:44:02;;;;;;;4.28;1.35;;;;;;;;;;10219784;29;20075;-56
2023/07/14 10:49:14;;;;;;;4.18;1.70;;;;;;;;;;10247350;28;20046;-58
2023/07/14 10:54:23;;;;;;;3.42;1.55;;;;;;;;;;10208780;29;20031;-62
2023/07/14 10:59:50;;;;;;;4.47;1.50;;;;;;;;;;10220100;29;20035;-60
2023/07/14 11:05:15;;;;;;;2.55;1.38;;;;;;;;;;10217759;29;20059;-58
2023/07/14 11:10:42;;;;;;;2.88;1.23;;;;;;;;;;10227290;29;20031;-59
2023/07/14 11:15:48;;;;;;;2.67;1.37;;;;;;;;;;10226377;28;20959;-60
2023/07/14 11:21:07;;;;;;;5.25;1.63;;;;;;;;;;10227513;29;20466;-58
2023/07/14 11:26:24;;;;;;;1.92;1.42;;;;;;;;;;10210548;29;20029;-60
2023/07/14 11:31:29;;;;;;;7.93;1.47;;;;;;;;;;10219767;29;20019;-60
2023/07/14 11:36:55;;;;;;;4.03;1.48;;;;;;;;;;10218340;29;20082;-60
2023/07/14 11:41:55;;;;;;;3.60;1.80;;;;;;;;;;10224983;29;20058;-60
2023/07/14 11:46:58;;;;;;;8.43;2.00;;;;;;;;;;10214977;28;20360;-59
2023/07/14 11:52:11;;;;;;;14.35;3.25;;;;;;;;;;10218700;28;20042;-58
2023/07/14 11:57:17;;;;;;;6.70;1.90;;;;;;;;;;10208343;29;20039;-58
2023/07/14 12:02:35;;;;;;;10.50;2.00;;;;;;;;;;10207312;29;20047;-58
2023/07/14 12:07:58;;;;;;;12.45;2.78;;;;;;;;;;10204573;29;20039;-58
2023/07/14 12:13:25;;;;;;;11.68;1.75;;;;;;;;;;10230988;29;20028;-58
2023/07/14 12:18:36;;;;;;;15.55;2.13;;;;;;;;;;10216428;29;20032;-59
2023/07/14 12:23:37;;;;;;;8.48;1.83;;;;;;;;;;10217690;29;20486;-59
2023/07/14 12:28:38;;;;;;;10.32;1.90;;;;;;;;;;10201556;29;20039;-58
2023/07/14 12:33:39;;;;;;;7.63;2.00;;;;;;;;;;10206225;28;20040;-58
2023/07/14 12:38:48;;;;;;;12.52;1.67;;;;;;;;;;10206905;29;20032;-58
2023/07/14 12:43:55;;;;;;;4.45;1.83;;;;;;;;;;10207924;29;20032;-58
2023/07/14 12:49:19;;;;;;;6.72;2.25;;;;;;;;;;10205991;29;20111;-58
2023/07/14 12:54:27;;;;;;;9.43;1.83;;;;;;;;;;10206968;29;20091;-59
2023/07/14 12:59:30;;;;;;;6.80;1.70;;;;;;;;;;10209068;29;20039;-59
2023/07/14 13:04:32;;;;;;;9.07;1.88;;;;;;;;;;10208947;29;20384;-59
2023/07/14 13:09:33;;;;;;;5.03;1.65;;;;;;;;;;10211610;28;20082;-58
2023/07/14 13:14:51;;;;;;;10.00;1.85;;;;;;;;;;10213401;28;20032;-57
2023/07/14 13:19:51;;;;;;;10.38;2.03;;;;;;;;;;10235953;29;20400;-58
2023/07/14 13:25:04;;;;;;;20.45;2.70;;;;;;;;;;10223391;29;20028;-58
2023/07/14 13:30:31;;;;;;;9.50;2.03;;;;;;;;;;10222196;29;20106;-58
2023/07/14 13:35:32;;;;;;;4.88;1.83;;;;;;;;;;10199904;29;20039;-58
2023/07/14 13:40:39;;;;;;;6.90;1.73;;;;;;;;;;10212083;29;20035;-58
2023/07/14 13:45:44;;;;;;;5.78;1.67;;;;;;;;;;10234437;29;20102;-58
2023/07/14 13:50:46;;;;;;;6.38;1.80;;;;;;;;;;10222549;29;20035;-58
2023/07/14 13:55:47;;;;;;;4.88;1.52;;;;;;;;;;10234542;29;20035;-58
2023/07/14 14:00:48;;;;;;;9.02;1.35;;;;;;;;;;10198885;29;20118;-58
2023/07/14 14:05:48;;;;;;;6.25;1.63;;;;;;;;;;10234138;29;20028;-58
2023/07/14 14:10:49;;;;;;;3.67;1.63;;;;;;;;;;10231017;29;20295;-58
2023/07/14 14:15:50;;;;;;;5.93;1.88;;;;;;;;;;10211108;29;20051;-58
2023/07/14 14:20:53;;;;;;;6.53;1.70;;;;;;;;;;10225870;28;20031;-58
2023/07/14 14:25:55;;;;;;;5.40;1.67;;;;;;;;;;10233823;29;20130;-58
2023/07/14 14:30:57;;;;;;;4.28;1.65;;;;;;;;;;10238656;28;20218;-58
2023/07/14 14:35:58;;;;;;;4.38;1.70;;;;;;;;;;10223937;29;20031;-58
2023/07/14 14:41:03;;;;;;;3.55;2.03;;;;;;;;;;10228901;28;20033;-58
2023/07/14 14:46:04;;;;;;;5.63;1.95;;;;;;;;;;10182846;29;20054;-58
2023/07/14 14:51:06;;;;;;;7.03;1.70;;;;;;;;;;10214526;29;20031;-58
2023/07/14 14:56:29;;;;;;;7.65;2.15;;;;;;;;;;10224197;28;20024;-58
2023/07/14 15:01:35;;;;;;;14.85;1.92;;;;;;;;;;10217779;29;20052;-58
2023/07/14 15:06:36;;;;;;;7.38;1.58;;;;;;;;;;10219911;29;20034;-58
2023/07/14 15:11:37;;;;;;;7.28;1.95;;;;;;;;;;10235128;28;20162;-58
2023/07/14 15:16:38;;;;;;;3.85;1.98;;;;;;;;;;10207186;28;20106;-59
2023/07/14 15:21:38;;;;;;;3.92;1.88;;;;;;;;;;10207472;29;20031;-58
2023/07/14 15:26:41;;;;;;;8.95;1.90;;;;;;;;;;10207372;29;20040;-57
2023/07/14 15:31:44;;;;;;;4.45;1.42;;;;;;;;;;10227393;29;20034;-58
2023/07/14 15:36:45;;;;;;;5.70;1.83;;;;;;;;;;10221195;28;20085;-58
2023/07/14 15:41:46;;;;;;;3.08;1.65;;;;;;;;;;10226762;29;20257;-58
2023/07/14 15:46:46;;;;;;;3.13;1.58;;;;;;;;;;10222171;28;20233;-58
2023/07/14 15:51:47;;;;;;;5.32;1.60;;;;;;;;;;10206082;29;20031;-58
2023/07/14 15:56:48;;;;;;;4.28;1.50;;;;;;;;;;10207298;29;20043;-58
2023/07/14 16:01:49;;;;;;;6.72;2.03;;;;;;;;;;10224323;29;20573;-58
2023/07/14 16:06:52;;;;;;;4.30;1.77;;;;;;;;;;10230392;28;20216;-57
2023/07/14 16:11:53;;;;;;;9.75;1.80;;;;;;;;;;10207617;28;20027;-58
2023/07/14 16:16:54;;;;;;;2.72;1.40;;;;;;;;;;10217582;28;20035;-60
2023/07/14 16:21:55;;;;;;;3.25;1.80;;;;;;;;;;10193035;29;20032;-58
2023/07/14 16:26:55;;;;;;;3.13;1.77;;;;;;;;;;10194155;28;20031;-57
2023/07/14 16:31:56;;;;;;;5.22;1.73;;;;;;;;;;10213121;29;20051;-59
2023/07/14 16:36:57;;;;;;;2.70;1.67;;;;;;;;;;10207208;29;20047;-59
2023/07/14 16:41:57;;;;;;;9.30;1.60;;;;;;;;;;10211519;28;20028;-59
2023/07/14 16:47:02;;;;;;;2.65;1.70;;;;;;;;;;10216113;29;20035;-59
2023/07/14 16:52:17;;;;;;;1.98;1.42;;;;;;;;;;10216934;29;20388;-59
2023/07/14 16:57:28;;;;;;;7.63;2.30;;;;;;;;;;10213059;29;20431;-60
2023/07/14 17:02:29;;;;;;;2.47;1.70;;;;;;;;;;10209773;28;20055;-59
2023/07/14 17:07:29;;;;;;;3.72;1.65;;;;;;;;;;10214084;28;20045;-58
2023/07/14 17:12:30;;;;;;;2.47;1.60;;;;;;;;;;10214659;29;20483;-59
2023/07/14 17:17:33;;;;;;;4.35;1.40;;;;;;;;;;10200942;29;20516;-58
2023/07/14 17:22:36;;;;;;;2.15;1.60;;;;;;;;;;10216933;28;20031;-59
2023/07/14 17:27:37;;;;;;;2.95;1.60;;;;;;;;;;10213941;29;20633;-58
2023/07/14 17:32:38;;;;;;;5.95;1.60;;;;;;;;;;10214420;29;20034;-62
2023/07/14 17:37:39;;;;;;;3.38;1.60;;;;;;;;;;10226217;28;20050;-61
2023/07/14 17:42:40;;;;;;;3.60;1.80;;;;;;;;;;10228997;28;20032;-59
2023/07/14 17:47:40;;;;;;;4.78;1.70;;;;;;;;;;10218789;29;20027;-59
2023/07/14 17:52:44;;;;;;;6.22;1.65;;;;;;;;;;10218545;28;20027;-59
2023/07/14 17:57:48;;;;;;;6.53;1.73;;;;;;;;;;10220707;29;20034;-59
2023/07/14 18:02:52;;;;;;;4.15;1.98;;;;;;;;;;10213002;28;20039;-59
2023/07/14 18:07:58;;;;;;;3.63;1.88;;;;;;;;;;10212147;29;20031;-60
2023/07/14 18:12:58;;;;;;;3.50;1.85;;;;;;;;;;10227156;29;20031;-62
2023/07/14 18:18:04;;;;;;;4.38;1.85;;;;;;;;;;10224921;28;20027;-62
2023/07/14 18:23:04;;;;;;;7.68;2.08;;;;;;;;;;10201533;29;20123;-62
2023/07/14 18:28:18;;;;;;;4.97;1.80;;;;;;;;;;10217487;29;20099;-62
2023/07/14 18:33:22;;;;;;;5.50;2.03;;;;;;;;;;10206299;29;20035;-59
2023/07/14 18:38:26;;;;;;;4.63;2.20;;;;;;;;;;10208979;29;20048;-61
2023/07/14 18:43:37;;;;;;;4.75;2.00;;;;;;;;;;10195183;29;20106;-62
2023/07/14 18:48:39;;;;;;;3.83;2.08;;;;;;;;;;10190007;29;21055;-61
2023/07/14 18:53:39;;;;;;;6.25;2.30;;;;;;;;;;10201098;29;20035;-60
2023/07/14 18:58:41;;;;;;;4.78;1.60;;;;;;;;;;10206731;29;20040;-60
2023/07/14 19:03:46;;;;;;;6.13;1.58;;;;;;;;;;10221554;28;20054;-60
2023/07/14 19:08:48;;;;;;;3.65;1.90;;;;;;;;;;10208484;29;20038;-59
2023/07/14 19:13:49;;;;;;;6.70;1.90;;;;;;;;;;10213291;29;20028;-60
2023/07/14 19:18:49;;;;;;;2.60;1.90;;;;;;;;;;10195278;29;20042;-61
2023/07/14 19:23:50;;;;;;;2.35;1.60;;;;;;;;;;10224850;29;20039;-59
2023/07/14 19:28:51;;;;;;;4.22;1.88;;;;;;;;;;10212183;29;20039;-59
2023/07/14 19:33:52;;;;;;;7.68;1.95;;;;;;;;;;10211235;29;20034;-58
2023/07/14 19:38:53;;;;;;;6.22;1.75;;;;;;;;;;10204932;28;20035;-59
2023/07/14 19:43:53;;;;;;;8.70;2.50;;;;;;;;;;10213652;29;20490;-59
2023/07/14 19:48:54;;;;;;;5.82;2.10;;;;;;;;;;10208774;29;20475;-61
2023/07/14 19:53:59;;;;;;;7.55;2.35;;;;;;;;;;10205045;29;20188;-60
2023/07/14 19:59:00;;;;;;;4.90;2.60;;;;;;;;;;10215529;28;20534;-60
2023/07/14 20:04:01;;;;;;;5.25;2.90;;;;;;;;;;10194355;28;20047;-60
2023/07/14 20:09:06;;;;;;;7.05;3.17;;;;;;;;;;10203897;29;20024;-60
2023/07/14 20:14:28;;;;;;;3.67;2.25;;;;;;;;;;10197901;29;20062;-60
2023/07/14 20:19:29;;;;;;;4.15;2.67;;;;;;;;;;10199849;29;20067;-60
2023/07/14 20:24:30;;;;;;;5.40;2.67;;;;;;;;;;10200187;29;20038;-62
2023/07/14 20:29:30;;;;;;;6.85;2.80;;;;;;;;;;10210892;29;20055;-61
2023/07/14 20:34:37;;;;;;;12.93;2.58;;;;;;;;;;10205061;29;20027;-59
2023/07/14 20:39:37;;;;;;;3.13;2.20;;;;;;;;;;10203417;29;20032;-60
2023/07/14 20:44:38;;;;;;;5.50;2.42;;;;;;;;;;10209886;29;20372;-59
2023/07/14 20:49:39;;;;;;;8.45;2.50;;;;;;;;;;10204851;29;20178;-59
2023/07/14 20:54:39;;;;;;;10.73;2.53;;;;;;;;;;10201167;29;20138;-58
2023/07/14 20:59:41;;;;;;;10.20;2.45;;;;;;;;;;10202544;29;20414;-60
2023/07/14 21:04:41;;;;;;;5.03;2.35;;;;;;;;;;10209326;29;20043;-58
2023/07/14 21:09:43;;;;;;;6.20;2.17;;;;;;;;;;10201324;29;20283;-60
2023/07/14 21:14:44;;;;;;;8.43;2.25;;;;;;;;;;10217873;29;20099;-58
2023/07/14 21:19:47;;;;;;;4.03;2.15;;;;;;;;;;10200943;29;20031;-62
2023/07/14 21:24:47;;;;;;;6.88;2.47;;;;;;;;;;10201894;29;20028;-58
2023/07/14 21:29:48;;;;;;;2.50;1.88;;;;;;;;;;10198379;29;20028;-57
2023/07/14 21:34:51;;;;;;;4.95;2.40;;;;;;;;;;10210077;29;20030;-57
2023/07/14 21:39:52;;;;;;;10.88;2.55;;;;;;;;;;10208749;29;20039;-57
2023/07/14 21:44:53;;;;;;;8.23;2.60;;;;;;;;;;10231989;29;20027;-61
2023/07/14 21:49:53;;;;;;;4.10;2.53;;;;;;;;;;10208973;29;20031;-57
2023/07/14 21:54:54;;;;;;;8.77;2.65;;;;;;;;;;10213646;29;20364;-58
2023/07/14 21:59:55;;;;;;;4.97;2.20;;;;;;;;;;10205953;29;20119;-60
2023/07/14 22:04:55;;;;;;;20.05;3.05;;;;;;;;;;10208126;28;20043;-58
2023/07/14 22:09:56;;;;;;;7.47;2.58;;;;;;;;;;10210363;29;20235;-59
2023/07/14 22:14:56;;;;;;;3.63;2.30;;;;;;;;;;10216290;29;20107;-59
2023/07/14 22:19:57;;;;;;;11.98;2.58;;;;;;;;;;10194259;29;20040;-58
2023/07/14 22:24:58;;;;;;;6.38;2.30;;;;;;;;;;10189396;29;20052;-59
2023/07/14 22:29:58;;;;;;;3.72;2.20;;;;;;;;;;10206261;29;20047;-60
2023/07/14 22:34:59;;;;;;;13.68;2.67;;;;;;;;;;10202567;29;20023;-59
2023/07/14 22:39:59;;;;;;;4.10;2.47;;;;;;;;;;10189261;29;20046;-58
2023/07/14 22:45:00;;;;;;;5.57;2.40;;;;;;;;;;10186613;29;20038;-60
2023/07/14 22:50:01;;;;;;;4.60;2.10;;;;;;;;;;10197401;29;20031;-60
2023/07/14 22:55:02;;;;;;;7.40;2.75;;;;;;;;;;10218346;28;20059;-59
2023/07/14 23:00:04;;;;;;;8.30;2.05;;;;;;;;;;10222174;29;20134;-58
2023/07/14 23:05:19;;;;;;;4.43;2.20;;;;;;;;;;10365180;23;20116;-65
2023/07/14 23:10:21;;;;;;;6.18;2.20;;;;;;;;;;10375956;28;20036;-65
2023/07/14 23:15:23;;;;;;;3.30;1.80;;;;;;;;;;10375700;28;20026;-65
2023/07/14 23:20:24;;;;;;;6.53;2.28;;;;;;;;;;10375560;28;20437;-65
2023/07/14 23:25:27;;;;;;;4.45;2.28;;;;;;;;;;10375477;28;20022;-65
2023/07/14 23:30:29;;;;;;;6.00;2.08;;;;;;;;;;10375181;28;20469;-63
2023/07/14 23:35:30;;;;;;;3.03;2.10;;;;;;;;;;10375153;28;20389;-63
2023/07/14 23:40:32;;;;;;;10.40;2.35;;;;;;;;;;10375462;28;20120;-63
2023/07/14 23:45:36;;;;;;;2.95;1.95;;;;;;;;;;10374707;28;20038;-63
2023/07/14 23:50:51;;;;;;;2.17;1.90;;;;;;;;;;10373928;28;20030;-63
2023/07/14 23:55:57;;;;;;;3.53;2.03;;;;;;;;;;10374583;28;20500;-63
